Holcomb, Washington
Current Conditions -  °F | °C
As of 12:53 AM on Monday 24 Nov 2014 (Local Time) from KHQM Reporting Station
Haze Haze  
Wind Chill: 38°   Ceiling: Unl
Heat Index: 42°   Visibility: 5mi
Dew Point: 41°   Wind: 6mph
Humidity: 96%   Direction: 60°ENE
Pressure: 30.35"   Gusts: NA
Location:  46.6563°N, 123.58°W
Report Text: KHQM 240853Z AUTO 06005KT 5SM BR CLR 06/05 A3035 RMK AO2 SLP281 T00560050 51012
Loading
Personal Weather Stations






























Interactive Weather Map New forecast layout! Learn more

10-Day Weather Forecast

Advertisements
Track Severe Weather on mobile